M I D A S
Marine Information and Data Acquisition System
Tripno 775 of the Zeeleeuw from 2004-03-18 07:12:37 to 2004-03-18 11:41:07
Back to CruiseResearch ActivitiesStationsMapUnderway DataData graphs

EquipmentUnitsComments
TimeDGPSUTC
LatitudeDGPSDM.mWGS84
LongitudeDGPSDM.mWGS84
SpeedMeteo Stationm/sRelative wind speed
DirectionMeteo StationdegRelative wind direction
TemperatureMeteo Stationdeg CelciusAir temperature
PressureMeteo StationPaAtmospheric pressure
HumidityMeteo Station%Relative humidity
Missing or incorrect values are displayed as -999
Metereological data collected by the RV Zeeleeuw from 2004-03-18 07:12:37 to 2004-03-18 11:41:07
Time Latitude Longitude Speed Direction Temperature Pressure Humidity
2004-03-18 07:13 51°13.656 2°55.888 1.6 173 7.4 102280 95
2004-03-18 07:14 51°13.685 2°55.783 2.2 154 7.4 102280 95
2004-03-18 07:15 51°13.698 2°55.746 1.6 83 7.4 102280 95
2004-03-18 07:16 51°13.692 2°55.737 2 148 7.4 102280 95
2004-03-18 07:17 51°13.729 2°55.714 0.1 178 7.4 102270 95
2004-03-18 07:18 51°13.817 2°55.646 1.3 4 7.5 102270 95
2004-03-18 07:19 51°13.923 2°55.568 1.5 13 7.5 102270 95
2004-03-18 07:20 51°14.044 2°55.492 1.3 2 7.5 102270 95
2004-03-18 07:21 51°14.175 2°55.394 3.6 349 7.5 102270 95
2004-03-18 07:22 51°14.294 2°55.2 4.2 348 7.5 102280 95
2004-03-18 07:23 51°14.383 2°54.964 5.9 351 7.5 102280 95
2004-03-18 07:24 51°14.376 2°54.65 8.1 352 7.6 102270 95
2004-03-18 07:25 51°14.268 2°54.355 8.8 352 7.6 102260 95
2004-03-18 07:26 51°14.158 2°54.046 9.1 352 7.5 102250 95
2004-03-18 07:27 51°14.045 2°53.735 8.6 350 7.4 102270 95
2004-03-18 07:28 51°13.932 2°53.417 9.6 355 7.4 102270 95
2004-03-18 07:29 51°13.813 2°53.081 9.4   7.3 102270 95
2004-03-18 07:30 51°13.696 2°52.743 9.6 2 7.3 102240 95
2004-03-18 07:31 51°13.584 2°52.413 10.8 9 7.2 102250 95
2004-03-18 07:32 51°13.466 2°52.062 10.7 10 7.2 102250 95
2004-03-18 07:33 51°13.349 2°51.712 10.9 11 7.1 102250 95
2004-03-18 07:34 51°13.233 2°51.369 10.3 10 7 102250 95
2004-03-18 07:35 51°13.118 2°51.032 10.4 12 7 102250 95
2004-03-18 07:36 51°13.002 2°50.684 9.8 10 6.9 102240 95
2004-03-18 07:37 51°12.887 2°50.344 9.6 7 6.9 102240 95
2004-03-18 07:38 51°12.774 2°50.008 9.7 9 6.9 102240 95
2004-03-18 07:39 51°12.662 2°49.673 9.7 7 6.9 102240 95
2004-03-18 07:40 51°12.547 2°49.325 9.5 12 6.9 102240 95
2004-03-18 07:41 51°12.433 2°48.982 9.3 13 6.9 102240 95
2004-03-18 07:42 51°12.32 2°48.64 9.5 5 6.9 102230 95
2004-03-18 07:43 51°12.211 2°48.288 8.9 7 6.9 102230 95
2004-03-18 07:44 51°12.109 2°47.948 8.7 6 6.9 102240 95
2004-03-18 07:45 51°12.005 2°47.601 8.4 4 6.9 102230 95
2004-03-18 07:46 51°11.9 2°47.255 8.5 1 6.9 102230 95
2004-03-18 07:47 51°11.795 2°46.908 8.7 357 6.9 102230 95
2004-03-18 07:48 51°11.702 2°46.553 9.1 357 6.9 102230 95
2004-03-18 07:49 51°11.617 2°46.198 8.6 356 6.9 102240 95
2004-03-18 07:50 51°11.521 2°45.837 8.6 353 7 102240 95
2004-03-18 07:51 51°11.434 2°45.486 8.4 350 7 102230 95
2004-03-18 07:52 51°11.346 2°45.131 8 345 7 102220 95
2004-03-18 07:53 51°11.255 2°44.776 7.8 340 7 102210 95
2004-03-18 07:54 51°11.166 2°44.42 7.9 337 7 102200 95
2004-03-18 07:55 51°11.079 2°44.064 7.8 331 7 102190 95
2004-03-18 07:56 51°10.991 2°43.71 7.9 325 7 102190 95
2004-03-18 07:57 51°10.912 2°43.35 8.3 325 7 102180 95
2004-03-18 07:58 51°10.836 2°42.99 7.8 327 7 102190 95
2004-03-18 07:59 51°10.758 2°42.631 7.8 328 7.1 102190 95
2004-03-18 08:00 51°10.68 2°42.273 7.5 330 7.1 102190 95
2004-03-18 08:01 51°10.603 2°41.917 7.8 337 7.1 102190 95
2004-03-18 08:02 51°10.528 2°41.56 7.8 340 7.1 102210 95
2004-03-18 08:03 51°10.451 2°41.204 8.1 343 7.2 102190 95
2004-03-18 08:04 51°10.377 2°40.857 8.1 341 7.2 102200 95
2004-03-18 08:05 51°10.299 2°40.494 7.4 349 7.2 102190 95
2004-03-18 08:06 51°10.226 2°40.152 7.7 349 7.2 102200 95
2004-03-18 08:07 51°10.151 2°39.797 7.5 347 7.2 102200 95
2004-03-18 08:08 51°10.078 2°39.448 7.2 345 7.3 102190 95
2004-03-18 08:09 51°10.007 2°39.104 7.2 344 7.3 102190 95
2004-03-18 08:10 51°9.933 2°38.752 7.3 341 7.4 102180 95
2004-03-18 08:11 51°9.859 2°38.4 7.4 341 7.4 102180 95
2004-03-18 08:12 51°9.786 2°38.043 7.9 339 7.4 102180 95
2004-03-18 08:13 51°9.714 2°37.699 7.6 337 7.5 102180 95
2004-03-18 08:14 51°9.641 2°37.349 8 338 7.5 102180 95
2004-03-18 08:15 51°9.557 2°37.007 8 335 7.5 102170 95
2004-03-18 08:16 51°9.472 2°36.671 7.9 338 7.5 102170 95
2004-03-18 08:17 51°9.386 2°36.324 8 340 7.5 102170 95
2004-03-18 08:18 51°9.303 2°35.976 7.8 340 7.5 102170 95
2004-03-18 08:19 51°9.226 2°35.647 8.4 342 7.5 102170 95
2004-03-18 08:20 51°9.143 2°35.296 7.7 345 7.5 102170 95
2004-03-18 08:21 51°9.061 2°34.956 8.2 346 7.5 102170 95
2004-03-18 08:22 51°8.985 2°34.629 7.2 345 7.5 102170 95
2004-03-18 08:23 51°8.932 2°34.401 4.8 321 7.5 102190 95
2004-03-18 08:24 51°8.939 2°34.26 2.3 294 7.5 102200 95
2004-03-18 08:25 51°8.943 2°34.237 2.5 266 7.6 102190 95
2004-03-18 08:26 51°8.946 2°34.237 2.4 273 7.5 102190 95
2004-03-18 08:27 51°8.947 2°34.236 2.7 284 7.6 102180 95
2004-03-18 08:28 51°8.949 2°34.236 2.8 291 7.6 102180 95
2004-03-18 08:29 51°8.95 2°34.237 2.8 297 7.6 102170 95
2004-03-18 08:30 51°8.951 2°34.237 3.2 305 7.7 102170 95
2004-03-18 08:31 51°8.951 2°34.237 3.5 307 7.7 102170 95
2004-03-18 08:32 51°8.951 2°34.238 3.8 310 7.7 102170 95
2004-03-18 08:33 51°8.951 2°34.239 3.7 307 7.7 102160 95
2004-03-18 08:34 51°8.952 2°34.241 4.2 228 7.7 102160 95
2004-03-18 08:35 51°8.953 2°34.244 4.7 311 7.7 102160 95
2004-03-18 08:36 51°8.953 2°34.244 4.7 313 7.8 102160 95
2004-03-18 08:37 51°8.955 2°34.247 5.2 314 7.8 102150 95
2004-03-18 08:38 51°8.956 2°34.249 5.2 43 7.8 102150 95
2004-03-18 08:39 51°8.94 2°34.241 5.9 311 7.9 102140 95
2004-03-18 08:40 51°8.906 2°34.197 6.1 295 7.9 102140 95
2004-03-18 08:41 51°8.883 2°34.106 4.8 273 7.9 102140 95
2004-03-18 08:42 51°8.884 2°34.001 4.6 273 7.9 102140 95
2004-03-18 08:43 51°8.88 2°33.882 3.9 282 7.9 102140 95
2004-03-18 08:44 51°8.88 2°33.768 3.5 272 7.9 102130 95
2004-03-18 08:45 51°8.887 2°33.644 3.7 264 7.9 102130 95
2004-03-18 08:46 51°8.895 2°33.533 3.5 262 7.9 102130 95
2004-03-18 08:47 51°8.9 2°33.446 3.2 259 7.8 102130 95
2004-03-18 08:48 51°8.906 2°33.371 2.8 249 7.8 102120 95
2004-03-18 08:49 51°8.919 2°33.305 3.1 242 7.8 102120 95
2004-03-18 08:50 51°8.936 2°33.244 3.5 241 7.8 102120 95
2004-03-18 08:51 51°8.951 2°33.185 3.6 243 7.8 102120 95
2004-03-18 08:52 51°8.963 2°33.13 3.6 250 7.8 102110 95
2004-03-18 08:53 51°8.97 2°33.085 3.4 255 7.8 102110 95
2004-03-18 08:54 51°8.972 2°33.053 5 261 7.8 102110 95
2004-03-18 08:55 51°8.972 2°33.031 5.2 270 7.9 102100 95
2004-03-18 08:56 51°8.972 2°33.017 5.2 273 7.9 102110 95
2004-03-18 08:57 51°8.973 2°33.008 4.9 278 8 102100 95
2004-03-18 08:58 51°8.973 2°33.003 5.2 280 8 102100 95
2004-03-18 08:59 51°8.975 2°33.001 5.2 281 8 102090 95
2004-03-18 09:00 51°8.978 2°33.001 5.3 283 8 102090 95
2004-03-18 09:01 51°8.981 2°33.004 6.1 284 8 102090 95
2004-03-18 09:02 51°8.985 2°33.007 5.6 282 8 102090 95
2004-03-18 09:03 51°8.991 2°33.013 5.7 282 8 102090 95
2004-03-18 09:04 51°8.996 2°33.019 5.9 286 8.1 102080 95
2004-03-18 09:05 51°9.002 2°33.028 5.3 287 8.1 102080 95
2004-03-18 09:06 51°9.005 2°33.036 5.3 295 8.1 102080 95
2004-03-18 09:07 51°9.004 2°33.045 5.5 308 8.2 102080 95
2004-03-18 09:08 51°9 2°33.057 5.3 227 8.3 102070 95
2004-03-18 09:09 51°8.994 2°33.073 5.5 317 8.3 102070 95
2004-03-18 09:10 51°8.987 2°33.09 5.1 319 8.3 102060 95
2004-03-18 09:11 51°8.979 2°33.105 5.3 228 8.3 102070 95
2004-03-18 09:12 51°8.97 2°33.114 5.1 300 8.3 102070 95
2004-03-18 09:13 51°8.965 2°33.114 4.5 280 8.4 102070 95
2004-03-18 09:14 51°8.962 2°33.107 4.5 285 8.3 102070 95
2004-03-18 09:15 51°8.958 2°33.1 4 289 8.3 102060 96
2004-03-18 09:16 51°8.953 2°33.096 4.8 292 8.4 102060 96
2004-03-18 09:17 51°8.95 2°33.096 5 294 8.4 102060 96
2004-03-18 09:18 51°8.949 2°33.099 4.7 292 8.5 102060 95
2004-03-18 09:19 51°8.949 2°33.107 4.7 290 8.5 102060 96
2004-03-18 09:20 51°8.952 2°33.116 5 290 8.5 102050 96
2004-03-18 09:21 51°8.956 2°33.127 5.3 289 8.5 102050 96
2004-03-18 09:22 51°8.961 2°33.14 6 288 8.5 102040 96
2004-03-18 09:23 51°8.968 2°33.154 6.5 289 8.5 102040 96
2004-03-18 09:24 51°8.975 2°33.169 5.4 282 8.5 102030 96
2004-03-18 09:25 51°8.973 2°33.162 6.6 280 8.5 102030 96
2004-03-18 09:26 51°8.987 2°33.036 2.7 252 8.5 102030 96
2004-03-18 09:27 51°9.07 2°32.897 1.7 248 8.5 102030 96
2004-03-18 09:28 51°9.134 2°32.761 2.9 259 8.5 102020 96
2004-03-18 09:29 51°9.147 2°32.751 6.1 262 8.5 102020 96
2004-03-18 09:30 51°9.154 2°32.759 6.1 273 8.4 102030 96
2004-03-18 09:31 51°9.16 2°32.768 7.2 276 8.5 102020 96
2004-03-18 09:32 51°9.165 2°32.777 6.5 279 8.6 102020 96
2004-03-18 09:33 51°9.17 2°32.787 7 276 8.6 102020 96
2004-03-18 09:34 51°9.175 2°32.796 6.7 277 8.6 102020 96
2004-03-18 09:35 51°9.18 2°32.806 6.4 276 8.6 102020 96
2004-03-18 09:36 51°9.186 2°32.817 5.7 279 8.7 102020 96
2004-03-18 09:37 51°9.19 2°32.828 6.2 278 8.7 102020 96
2004-03-18 09:38 51°9.198 2°32.764 2.5 255 8.7 102010 96
2004-03-18 09:39 51°9.297 2°32.695 2.2 120 8.7 102020 96
2004-03-18 09:40 51°9.419 2°32.839 6.8 59 8.7 102010 96
2004-03-18 09:41 51°9.565 2°33.07 7.3 58 8.6 102000 96
2004-03-18 09:42 51°9.709 2°33.316 7.8 56 8.6 102000 96
2004-03-18 09:43 51°9.857 2°33.573 8 52 8.7 102000 96
2004-03-18 09:44 51°10.002 2°33.825 7.8 54 8.7 101990 96
2004-03-18 09:45 51°10.148 2°34.077 7.3 54 8.7 101990 96
2004-03-18 09:46 51°10.288 2°34.321 7.2 42 8.8 102000 96
2004-03-18 09:47 51°10.439 2°34.582 6.9 31 8.7 102000 96
2004-03-18 09:48 51°10.591 2°34.845 7.5 32 8.6 102000 96
2004-03-18 09:49 51°10.728 2°35.089 7.5 29 8.6 102000 96
2004-03-18 09:50 51°10.871 2°35.357 8.1 40 8.7 102000 96
2004-03-18 09:51 51°11.009 2°35.616 6.9 44 8.9 102000 96
2004-03-18 09:52 51°11.118 2°35.818 6 49 8.7 102000 96
2004-03-18 09:53 51°11.191 2°35.965 4.6 60 8.7 102000 96
2004-03-18 09:54 51°11.233 2°36.089 4.6 58 8.6 102010 96
2004-03-18 09:55 51°11.256 2°36.193 4.9 59 8.6 102010 96
2004-03-18 09:56 51°11.269 2°36.244 3.2 78 8.6 102010 96
2004-03-18 09:57 51°11.278 2°36.261 3.8 81 8.7 102010 96
2004-03-18 09:58 51°11.287 2°36.282 3.9 81 8.7 102010 96
2004-03-18 09:59 51°11.296 2°36.306 4.1 90 8.8 102000 96
2004-03-18 10:00 51°11.307 2°36.334 3.8 97 8.9 102000 96
2004-03-18 10:01 51°11.319 2°36.363 3.6 100 9 102000 96
2004-03-18 10:02 51°11.33 2°36.395 3.2 102 8.9 102000 96
2004-03-18 10:03 51°11.367 2°36.442 2.4 128 8.9 101990 96
2004-03-18 10:04 51°11.417 2°36.408 2.8 267 9 102000 96
2004-03-18 10:05 51°11.396 2°36.345 5.2 42 9.2 101990 96
2004-03-18 10:06 51°11.335 2°36.29 5.4 228 9.3 101990 96
2004-03-18 10:07 51°11.274 2°36.226 5.5 318 9.3 101990 97
2004-03-18 10:08 51°11.24 2°36.213 4.3 289 9.5 101980 97
2004-03-18 10:09 51°11.234 2°36.211 4.6 268 9.5 101990 97
2004-03-18 10:10 51°11.232 2°36.211 4.6 268 9.5 101990 97
2004-03-18 10:11 51°11.231 2°36.214 4.1 275 9.5 101980 97
2004-03-18 10:12 51°11.23 2°36.222 3.8 281 9.5 101980 97
2004-03-18 10:13 51°11.229 2°36.233 3.5 284 9.7 101980 97
2004-03-18 10:14 51°11.228 2°36.247 3.5 285 9.7 101970 97
2004-03-18 10:15 51°11.228 2°36.263 3.5 290 9.8 101970 97
2004-03-18 10:16 51°11.227 2°36.281 3.4 294 9.9 101970 97
2004-03-18 10:17 51°11.227 2°36.299 3.4 299 10 101970 97
2004-03-18 10:18 51°11.228 2°36.319 3.6 303 10.1 101970 98
2004-03-18 10:19 51°11.229 2°36.34 3.3 307 10.2 101970 98
2004-03-18 10:20 51°11.231 2°36.361 3.2 308 10.2 101970 98
2004-03-18 10:21 51°11.232 2°36.383 3.2 307 10.3 101970 98
2004-03-18 10:22 51°11.234 2°36.406 3.3 311 10.4 101970 98
2004-03-18 10:23 51°11.204 2°36.439 6 353 10.4 101970 98
2004-03-18 10:24 51°11.044 2°36.494 9.7 351 10.3 101950 98
2004-03-18 10:25 51°10.829 2°36.528 9.3 354 10.2 101940 98
2004-03-18 10:26 51°10.605 2°36.576 9.6 353 10.2 101940 97
2004-03-18 10:27 51°10.391 2°36.626 9.7 356 10.2 101950 97
2004-03-18 10:28 51°10.197 2°36.824 9.8 5 10.2 101930 97
2004-03-18 10:29 51°10.064 2°37.156 10 11 10.1 101940 97
2004-03-18 10:30 51°10.023 2°37.554 8.8 3 10.2 101950 97
2004-03-18 10:31 51°10.006 2°37.954 9.1 10 10.2 101940 97
2004-03-18 10:32 51°10.042 2°38.369 9.8 17 10.2 101950 97
2004-03-18 10:33 51°10.09 2°38.762 9.7 13 10.3 101940 97
2004-03-18 10:34 51°10.152 2°39.183 9.3 13 10.3 101940 96
2004-03-18 10:35 51°10.223 2°39.586 8.9 20 10.2 101940 96
2004-03-18 10:36 51°10.302 2°39.983 9.5 14 10.3 101940 96
2004-03-18 10:37 51°10.336 2°40.393 9.5 15 10.3 101930 96
2004-03-18 10:38 51°10.372 2°40.8 10.2 13 10.4 101940 96
2004-03-18 10:39 51°10.408 2°41.204 9.4 15 10.4 101930 96
2004-03-18 10:40 51°10.444 2°41.606 9.7 22 10.5 101930 96
2004-03-18 10:41 51°10.479 2°41.994 9.7 22 10.5 101930 96
2004-03-18 10:42 51°10.544 2°42.396 8.8 27 10.6 101930 96
2004-03-18 10:43 51°10.672 2°42.745 8.6 27 10.7 101930 96
2004-03-18 10:44 51°10.795 2°43.092 8.9 28 10.8 101930 96
2004-03-18 10:45 51°10.929 2°43.441 8.9 26 11 101920 96
2004-03-18 10:46 51°11.04 2°43.803 9.1 31 11.1 101920 95
2004-03-18 10:47 51°11.147 2°44.161 9.8 34 11.1 101920 95
2004-03-18 10:48 51°11.262 2°44.532 9.2 33 11.2 101920 95
2004-03-18 10:49 51°11.379 2°44.889 9.1 33 11.3 101920 94
2004-03-18 10:50 51°11.501 2°45.259 9.1 38 11.3 101920 94
2004-03-18 10:51 51°11.61 2°45.624 8.7 32 11.4 101920 94
2004-03-18 10:52 51°11.724 2°46.003 9.1 35 11.5 101920 93
2004-03-18 10:53 51°11.836 2°46.377 9.3 32 11.6 101920 93
2004-03-18 10:54 51°11.948 2°46.748 9 35 11.5 101920 92
2004-03-18 10:55 51°12.063 2°47.129 8.4 25 11.6 101920 92
2004-03-18 10:56 51°12.177 2°47.503 8.1 30 11.7 101920 92
2004-03-18 10:57 51°12.296 2°47.866 8.2 29 11.8 101920 91
2004-03-18 10:58 51°12.418 2°48.24 8.7 25 11.7 101920 91
2004-03-18 10:59 51°12.539 2°48.604 7.7 18 11.7 101920 91
2004-03-18 11:00 51°12.657 2°48.963 7.5 27 11.8 101920 90
2004-03-18 11:01 51°12.78 2°49.335 7.9 27 11.9 101920 90
2004-03-18 11:02 51°12.902 2°49.702 9 30 11.9 101910 89
2004-03-18 11:03 51°13.022 2°50.07 8.7 30 12 101910 89
2004-03-18 11:04 51°13.142 2°50.437 7.3 28 12.1 101910 88
2004-03-18 11:05 51°13.246 2°50.697 4.8 50 12.1 101910 88
2004-03-18 11:06 51°13.338 2°50.876 3.9 49 12.1 101910 87
2004-03-18 11:07 51°13.391 2°51.036 3.7 43 12.2 101920 87
2004-03-18 11:08 51°13.413 2°51.12 2.4 81 12.1 101920 86
2004-03-18 11:09 51°13.437 2°51.104 2.1 101 12.2 101920 86
2004-03-18 11:10 51°13.457 2°51.099 2.4 101 12.2 101920 85
2004-03-18 11:11 51°13.474 2°51.103 2.4 105 12.2 101920 84
2004-03-18 11:12 51°13.489 2°51.116 2.7 108 12.1 101920 83
2004-03-18 11:13 51°13.503 2°51.134 2.5 115 12.1 101930 83
2004-03-18 11:14 51°13.52 2°51.17 2.6 91 12.1 101930 82
2004-03-18 11:15 51°13.519 2°51.263 3.6 17 12 101920 82
2004-03-18 11:16 51°13.47 2°51.292 4 336 12 101920 82
2004-03-18 11:17 51°13.436 2°51.205 4 334 12.1 101910 82
2004-03-18 11:18 51°13.411 2°51.141 4.3 320 12.1 101910 82
2004-03-18 11:19 51°13.401 2°51.151 3.6 343 12.1 101920 81
2004-03-18 11:20 51°13.396 2°51.176 3.1 350 12.2 101920 81
2004-03-18 11:21 51°13.392 2°51.203 3.5 340 12.2 101920 81
2004-03-18 11:22 51°13.393 2°51.229 3.3 333 12.3 101920 81
2004-03-18 11:23 51°13.397 2°51.254 3.3 322 12.3 101920 81
2004-03-18 11:24 51°13.403 2°51.276 3.4 312 12.3 101920 81
2004-03-18 11:25 51°13.412 2°51.298 3.6 301 12.2 101930 81
2004-03-18 11:26 51°13.424 2°51.318 3.1 295 12.1 101930 80
2004-03-18 11:27 51°13.437 2°51.337 3.5 286 12 101930 81
2004-03-18 11:28 51°13.45 2°51.354 3.6 310 12 101930 81
2004-03-18 11:29 51°13.427 2°51.36 5 8 12 101930 82
2004-03-18 11:30 51°13.407 2°51.474 4.4 61 11.9 101930 81
2004-03-18 11:31 51°13.508 2°51.7 5.8 40 11.9 101930 83
2004-03-18 11:32 51°13.655 2°52.024 6.4 50 12 101930 82
2004-03-18 11:33 51°13.779 2°52.373 5.8 43 12.1 101930 81
2004-03-18 11:34 51°13.924 2°52.702 6.5 35 12 101930 82
2004-03-18 11:35 51°14.074 2°53.027 6.7 44 12 101930 83
2004-03-18 11:36 51°14.214 2°53.367 6.4 44 12 101920 83
2004-03-18 11:37 51°14.335 2°53.708 7 34 12.1 101920 82
2004-03-18 11:38 51°14.394 2°54.112 8.4 38 12.2 101920 82
2004-03-18 11:39 51°14.409 2°54.51 9.2 38 12.2 101920 82
2004-03-18 11:40 51°14.395 2°54.869 8.7 32 12.3 101910 82